Latest Coastal Weather Observations for Flinders Island Airport

IDV60701

Issued at 9:45 am EDT Tuesday 25 November 2014 (issued every 10 minutes, with the page automatically refreshed every 10 minutes)

About coastal observations | Map of coastal stations | Coastal observations for VIC | Marine services | Other Formats
Station Details ID: 099005 Name: FLINDERS ISLAND AIRPORT Lat: -40.09 Lon: 148.00 Height: 9.0 m
Data from the previous 72 hours. | See also: Recent months at Flinders Island Airport
Date/Time
EDT
Temp

°C
Wind Pressure Rain
since 9am
mm
Weather Cloud Vis
km
Sea
Height
m
Swell
Dir
 
Speed
knots
Gust
knots
hPa Trend Height
m
Period
s
Dir
25/09:30am 15.2 W 30 39 1010.7 - 0.0 - Partly cloudy 10 - - - -
25/09:26am 15.2 WSW 29 39 1010.7 - 0.0 - Partly cloudy 10 - - - -
25/09:00am 14.8 W 30 39 1010.3 - 12.6 - Partly cloudy 10 - - - -
25/08:30am 14.9 W 29 36 1010.1 - 12.6 - Partly cloudy 10 - - - -
25/08:19am 14.6 W 28 33 1009.9 - 12.6 - Partly cloudy 10 - - - -
25/08:09am 14.1 W 27 33 1009.9 - 12.6 - Partly cloudy 10 - - - -
25/08:00am 15.0 WSW 29 36 1009.9 - 12.6 - Partly cloudy 10 - - - -
25/07:30am 13.6 W 26 32 1009.3 - 12.6 - Partly cloudy 10 - - - -
25/07:06am 13.5 W 28 38 1008.9 - 12.6 - Partly cloudy 10 - - - -
25/07:00am 13.6 W 29 35 1008.8 - 12.6 - Partly cloudy 10 - - - -
25/06:30am 13.1 W 30 37 1008.2 - 12.6 - Partly cloudy 10 - - - -
25/06:00am 13.2 W 29 39 1007.7 - 12.6 - Cloudy 10 - - - -
25/05:42am 13.6 W 28 39 1007.4 - 12.6 - Partly cloudy 10 - - - -
25/05:30am 13.5 W 28 36 1007.4 - 12.6 - Partly cloudy 10 - - - -
25/05:00am 13.3 W 27 37 1007.2 - 12.6 - Partly cloudy 10 - - - -
25/04:30am 13.6 W 28 39 1007.1 - 12.6 - Partly cloudy 10 - - - -
25/04:02am 13.5 W 26 36 1006.9 - 12.6 - Partly cloudy 10 - - - -
25/04:00am 13.5 W 26 32 1006.9 - 12.6 - Partly cloudy 10 - - - -
25/03:30am 13.6 W 26 32 1007.0 - 12.6 - Partly cloudy 10 - - - -
25/03:00am 13.6 W 29 36 1006.9 - 12.6 - Mostly clear 10 - - - -
25/02:30am 13.6 W 27 34 1007.0 - 12.6 - Partly cloudy 10 - - - -
25/02:00am 13.7 WSW 30 34 1007.2 - 12.6 - Partly cloudy 10 - - - -
25/01:46am 13.5 W 27 37 1007.2 - 12.6 - Partly cloudy 10 - - - -
25/01:30am 13.5 W 27 33 1007.3 - 12.6 - Partly cloudy 10 - - - -
25/01:00am 13.6 WSW 29 36 1007.2 - 12.6 - Partly cloudy 10 - - - -
25/12:30am 13.8 WSW 27 32 1007.4 - 12.6 - Partly cloudy 10 - - - -
25/12:00am 14.0 W 25 32 1007.7 - 12.6 - Cloudy 10 - - - -
 
Date/Time
EDT
Temp

°C
Wind Pressure Rain
since 9am
mm
Weather Cloud Vis
km
Sea
Height
m
Swell
Dir
 
Speed
knots
Gust
knots
hPa Trend Height
m
Period
s
Dir
24/11:30pm 14.0 W 25 30 1007.7 - 12.6 - Partly cloudy 10 - - - -
24/11:00pm 14.1 WSW 27 35 1007.6 - 12.6 - Partly cloudy 10 - - - -
24/10:30pm 14.2 W 30 34 1007.4 - 12.6 - Partly cloudy 10 - - - -
24/10:29pm 14.2 W 31 34 1007.4 - 12.6 - Partly cloudy 10 - - - -
24/10:00pm 14.3 W 21 28 1006.9 - 12.6 - Partly cloudy 10 - - - -
24/09:30pm 14.5 W 17 24 1006.7 - 12.6 - Cloudy 10 - - - -
24/09:00pm 14.6 W 14 18 1006.1 - 12.6 - Mostly cloudy 10 - - - -
24/08:46pm 14.8 W 18 22 1006.0 - 12.6 - Partly cloudy 10 - - - -
24/08:30pm 15.0 W 19 24 1006.1 - 12.6 - Partly cloudy 10 - - - -
24/08:00pm 15.3 WNW 17 25 1005.4 - 12.6 - Partly cloudy 10 - - - -
24/07:57pm 15.4 WNW 17 25 1005.4 - 12.6 - Partly cloudy 9 - - - -
24/07:38pm 15.6 WNW 16 21 1005.1 - 12.6 - Partly cloudy 5 - - - -
24/07:30pm 15.7 WNW 17 21 1005.0 - 12.6 - Partly cloudy 10 - - - -
24/07:01pm 16.0 NW 15 21 1004.3 - 12.4 - Partly cloudy 5 - - - -
24/07:00pm 16.1 NW 15 20 1004.3 - 12.4 - Partly cloudy 6 - - - -
24/06:58pm 16.2 NW 13 20 1004.5 - 12.4 - Partly cloudy 8 - - - -
24/06:34pm 16.3 NW 11 17 1004.5 - 12.0 - Partly cloudy 5 - - - -
24/06:30pm 16.4 NW 11 15 1004.3 - 11.8 - Partly cloudy 10 - - - -
24/06:15pm 16.5 NNW 11 17 1004.0 - 11.6 - Partly cloudy 5 - - - -
24/06:00pm 16.1 NNW 10 14 1003.7 - 10.6 Recent precip. Cloudy 10 - - - -
24/05:30pm 15.3 N 9 13 1003.8 - 10.6 - Partly cloudy 10 - - - -
24/05:29pm 15.3 N 9 14 1003.8 - 10.6 - Partly cloudy 9 - - - -
24/05:00pm 15.4 N 8 14 1004.3 - 9.2 - Partly cloudy 10 - - - -
24/04:30pm 15.4 NNE 9 14 1004.4 - 7.0 - Partly cloudy 9 - - - -
24/04:00pm 15.2 NNE 16 19 1004.3 - 6.4 - Partly cloudy 10 - - - -
24/03:30pm 15.1 NE 11 15 1004.9 - 6.0 - Partly cloudy 10 - - - -
24/03:00pm 14.3 NNE 13 18 1005.9 - 5.6 Rain Cloudy 10 - - - -
24/02:30pm 14.3 NNE 14 19 1007.1 - 5.2 - Partly cloudy 10 - - - -
24/02:00pm 14.9 NNE 14 21 1007.1 - 4.6 - Partly cloudy 10 - - - -
24/01:30pm 14.3 NE 10 14 1008.6 - 4.4 - Partly cloudy 10 - - - -
24/01:00pm 14.8 NE 8 11 1008.8 - 4.0 - Partly cloudy 10 - - - -
24/12:30pm 14.7 NNE 7 9 1009.7 - 3.2 - Partly cloudy 6 - - - -
24/12:00pm 15.2 SW 3 5 1010.0 - 1.6 Recent precip. Mostly cloudy 8 - - - -
24/11:30am 15.2 WSW 8 11 1011.5 - 0.8 - Partly cloudy 9 - - - -
24/11:26am 15.1 SW 9 11 1011.5 - 0.8 - Partly cloudy 9 - - - -
24/11:13am 15.2 WSW 19 29 1012.0 - 0.8 - Partly cloudy 5 - - - -
24/11:08am 15.4 WSW 22 31 1012.5 - 0.6 - Partly cloudy 5 - - - -
24/11:00am 16.3 WSW 28 39 1012.3 - 0.0 - Partly cloudy 10 - - - -
24/10:58am 16.5 WSW 33 39 1012.4 - 0.0 - Partly cloudy 10 - - - -
24/10:55am 17.8 WSW 18 31 1012.1 - 0.0 - Partly cloudy 10 - - - -
24/10:54am 18.4 WSW 14 20 1011.4 - 0.0 - Cloudy 10 - - - -
24/10:30am 18.9 ENE 7 11 1008.8 - 0.0 - Partly cloudy 10 - - - -
24/10:00am 18.4 NE 6 8 1009.2 - 0.0 - Partly cloudy 10 - - - -
24/09:30am 17.7 SE 4 6 1010.1 - 0.0 - Partly cloudy 10 - - - -
24/09:00am 17.6 S 6 8 1010.6 - 0.0 - Mostly cloudy 10 - - - -
24/08:30am 16.8 SSW 5 6 1010.6 - 0.0 - Partly cloudy 10 - - - -
24/08:00am 15.5 CALM 0 0 1010.7 - 0.0 - Partly cloudy 10 - - - -
24/07:30am 13.5 ENE 6 7 1010.3 - 0.0 - Partly cloudy 10 - - - -
24/07:00am 11.5 NE 7 8 1010.5 - 0.0 - Partly cloudy 10 - - - -
24/06:30am 9.7 ENE 7 9 1010.8 - 0.0 - Partly cloudy 10 - - - -
24/06:00am 8.4 ENE 7 9 1011.2 - 0.0 - Mostly clear 10 - - - -
24/05:30am 8.1 ENE 6 8 1011.2 - 0.0 - Partly cloudy 10 - - - -
24/05:00am 8.4 NE 7 8 1011.4 - 0.0 - - 10 - - - -
24/04:30am 9.4 NE 6 7 1011.4 - 0.0 - - 10 - - - -
24/04:00am 8.7 NE 6 7 1011.6 - 0.0 - - 10 - - - -
24/03:30am 8.8 NE 6 8 1011.9 - 0.0 - - 10 - - - -
24/03:00am 10.3 NNE 5 6 1012.2 - 0.0 - - 10 - - - -
24/02:30am 10.0 N 5 5 1012.4 - 0.0 - - 10 - - - -
24/02:00am 11.8 NW 5 6 1012.6 - 0.0 - - 10 - - - -
24/01:30am 13.7 NNW 5 6 1012.8 - 0.0 - - 10 - - - -
24/01:00am 14.0 NW 8 10 1013.3 - 0.0 - - 10 - - - -
24/12:30am 14.1 NW 8 10 1013.6 - 0.0 - - 10 - - - -
24/12:00am 14.2 NW 8 10 1013.9 - 0.0 - Mostly cloudy 10 - - - -
 
Date/Time
EDT
Temp

°C
Wind Pressure Rain
since 9am
mm
Weather Cloud Vis
km
Sea
Height
m
Swell
Dir
 
Speed
knots
Gust
knots
hPa Trend Height
m
Period
s
Dir
23/11:30pm 14.1 NW 6 7 1013.9 - 0.0 - - 10 - - - -
23/11:00pm 14.3 NW 7 8 1013.8 - 0.0 - - 10 - - - -
23/10:30pm 14.5 NW 9 10 1013.9 - 0.0 - - 10 - - - -
23/10:00pm 14.6 WNW 9 13 1013.9 - 0.0 - - 10 - - - -
23/09:30pm 15.0 WNW 11 16 1013.4 - 0.0 - - 10 - - - -
23/09:00pm 15.3 WNW 9 11 1013.3 - 0.0 - Mostly clear 10 - - - -
23/08:30pm 15.4 WNW 8 9 1012.8 - 0.0 - - 10 - - - -
23/08:00pm 15.8 W 8 10 1012.8 - 0.0 - - 10 - - - -
23/07:30pm 16.3 W 10 14 1012.5 - 0.0 - - 10 - - - -
23/07:00pm 16.6 W 11 14 1011.9 - 0.0 - - 8 - - - -
23/06:30pm 17.1 WNW 14 17 1011.9 - 0.0 - - 10 - - - -
23/06:00pm 17.0 WNW 14 17 1012.1 - 0.0 - - 10 - - - -
23/05:30pm 17.5 W 12 16 1012.0 - 0.0 - - 10 - - - -
23/05:00pm 17.8 WNW 12 16 1011.9 - 0.0 - - 10 - - - -
23/04:30pm 18.2 WNW 13 17 1011.8 - 0.0 - - 10 - - - -
23/04:00pm 18.4 W 10 14 1011.4 - 0.0 - - 10 - - - -
23/03:30pm 17.8 W 11 14 1011.4 - 0.0 - - 10 - - - -
23/03:00pm 18.1 W 13 16 1011.5 - 0.0 - - 10 - - - -
23/02:30pm 17.8 WSW 11 14 1011.7 - 0.0 - - 10 - - - -
23/02:00pm 17.9 WSW 13 15 1011.6 - 0.0 - - 10 - - - -
23/01:30pm 17.9 W 14 16 1011.9 - 0.0 - - 10 - - - -
23/01:00pm 17.4 W 13 15 1011.9 - 0.0 - - 10 - - - -
23/12:30pm 17.6 W 13 15 1011.9 - 0.0 - - 10 - - - -
23/12:00pm 17.2 WSW 14 16 1011.9 - 0.0 - - 10 - - - -
23/11:30am 17.5 WSW 17 19 1012.2 - 0.0 - - 10 - - - -
23/11:00am 17.6 W 16 19 1012.1 - 0.0 - - 10 - - - -
23/10:30am 17.5 W 17 20 1011.7 - 0.0 - - 10 - - - -
23/10:00am 17.1 W 18 22 1011.3 - 0.0 - - 10 - - - -
23/09:30am 17.1 W 20 23 1011.2 - 0.0 - - 10 - - - -
23/09:00am 16.9 W 19 24 1010.9 - 0.0 - - 10 - - - -
23/08:30am 16.5 W 19 23 1010.4 - 0.0 - - 10 - - - -
23/08:00am 16.4 W 17 22 1009.9 - 0.0 - - 10 - - - -
23/07:30am 16.0 W 16 21 1009.4 - 0.0 - Partly cloudy 10 - - - -
23/07:00am 15.5 W 15 19 1009.0 - 0.0 - Partly cloudy 10 - - - -
23/06:44am 15.5 W 13 17 1008.8 - 0.0 - Partly cloudy 10 - - - -
23/06:30am 15.2 W 15 18 1008.4 - 0.0 - Partly cloudy 10 - - - -
23/06:04am 15.4 W 11 15 1008.3 - 0.0 - Partly cloudy 10 - - - -
23/06:00am 15.3 W 11 15 1008.2 - 0.0 - Mostly clear 10 - - - -
23/05:30am 15.6 W 13 16 1007.8 - 0.0 - Partly cloudy 10 - - - -
23/05:00am 16.0 W 14 19 1007.3 - 0.0 - Partly cloudy 10 - - - -
23/04:30am 16.1 W 16 19 1007.1 - 0.0 - - 10 - - - -
23/04:00am 16.7 WNW 13 16 1006.4 - 0.0 - Partly cloudy 10 - - - -
23/03:30am 17.2 WNW 13 17 1006.0 - 0.0 - Cloudy 10 - - - -
23/03:00am 17.6 NW 14 16 1005.8 - 0.0 - Cloudy 10 - - - -
23/02:30am 19.3 NW 18 25 1005.5 - 0.0 - - 10 - - - -
23/02:29am 19.5 NW 18 25 1005.5 - 0.0 - - 10 - - - -
23/02:00am 21.5 NW 11 15 1004.9 - 0.0 - - 10 - - - -
23/01:30am 21.8 NNW 10 15 1005.0 - 0.0 - - 10 - - - -
23/01:00am 22.4 NNW 10 16 1005.4 - 0.0 - - 10 - - - -
23/12:30am 21.4 N 13 18 1005.3 - 0.0 - Partly cloudy 10 - - - -
23/12:00am 20.7 NNE 18 23 1005.3 - 0.0 - Cloudy 10 - - - -
 
Date/Time
EDT
Temp

°C
Wind Pressure Rain
since 9am
mm
Weather Cloud Vis
km
Sea
Height
m
Swell
Dir
 
Speed
knots
Gust
knots
hPa Trend Height
m
Period
s
Dir
22/11:30pm 20.5 NNE 19 28 1005.1 - 0.0 - Partly cloudy 10 - - - -
22/11:27pm 20.8 NNE 18 28 1005.1 - 0.0 - Partly cloudy 10 - - - -
22/11:00pm 20.4 NNE 19 25 1005.5 - 0.0 - - 10 - - - -
22/10:30pm 20.3 NNE 20 27 1005.8 - 0.0 - - 10 - - - -
22/10:00pm 20.4 NNE 18 26 1005.8 - 0.0 - Partly cloudy 10 - - - -
22/09:30pm 17.7 NE 13 16 1006.3 - 0.0 - Partly cloudy 10 - - - -
22/09:00pm 16.3 ENE 8 11 1006.4 - 0.0 - - 10 - - - -
22/08:30pm 17.2 NNE 10 13 1006.5 - 0.0 - - 10 - - - -
22/08:00pm 18.8 NE 8 11 1006.6 - 0.0 - Partly cloudy 10 - - - -
22/07:30pm 19.2 NE 10 12 1006.3 - 0.0 - - 10 - - - -
22/07:00pm 20.9 NNE 12 15 1006.8 - 0.0 - Partly cloudy 10 - - - -
22/06:30pm 21.8 NNE 11 13 1006.8 - 0.0 - Partly cloudy 10 - - - -
22/06:00pm 24.3 N 8 13 1006.7 - 0.0 - - 10 - - - -
22/05:30pm 24.7 WNW 13 16 1006.9 - 0.0 - - 10 - - - -
22/05:00pm 23.6 N 9 14 1007.1 - 0.0 - - 10 - - - -
22/04:30pm 23.5 N 11 16 1007.3 - 0.0 - - 10 - - - -
22/04:00pm 22.8 N 14 19 1007.7 - 0.0 - - 10 - - - -
22/03:30pm 22.2 NNE 18 24 1008.0 - 0.0 - Partly cloudy 10 - - - -
22/03:00pm 20.8 NNE 17 22 1008.4 - 0.0 - Mostly cloudy 10 - - - -
22/02:30pm 22.3 NNE 18 23 1008.5 - 0.0 - Partly cloudy 10 - - - -
22/02:00pm 21.0 NNE 19 27 1008.8 - 0.0 - - 10 - - - -
22/01:54pm 21.5 NNE 17 27 1008.8 - 0.0 - - 10 - - - -
22/01:30pm 22.0 NNE 19 26 1009.0 - 0.0 - - 10 - - - -
22/01:00pm 21.9 NNE 20 24 1009.2 - 0.0 - - 10 - - - -
22/12:30pm 21.6 NNE 18 24 1009.4 - 0.0 - - 10 - - - -
22/12:00pm 21.8 N 16 23 1009.8 - 0.0 - Mostly cloudy 10 - - - -
22/11:30am 20.8 N 16 26 1010.2 - 0.0 - - 10 - - - -
22/11:20am 21.7 N 16 26 1010.3 - 0.0 - - 10 - - - -
22/11:00am 21.0 NNE 18 25 1009.9 - 0.0 - - 10 - - - -
22/10:30am 20.0 N 12 20 1010.4 - 0.0 - Partly cloudy 10 - - - -
22/10:00am 18.7 NNE 9 16 1010.9 - 0.0 - Cloudy 10 - - - -

Other Formats:

Comma delimited format used in spreadsheet applications
http://www.bom.gov.au/fwo/IDV60701/IDV60701.94980.axf

JavaScript Object Notation format (JSON) in row-major order
http://www.bom.gov.au/fwo/IDV60701/IDV60701.94980.json